Time;durP1;ratioP1;P1;durP2;ratioP2;P2;SDS_P1;SDS_P2;PMS_P1;PMS_P2;Temp;Humidity;BMP_temperature;BMP_pressure;BME280_temperature;BME280_humidity;BME280_pressure;Samples;Min_cycle;Max_cycle;Signal;HPM_P1;HPM_P2
2022/10/21 00:02:07;;;;;;;33.70;12.50;;;;;;;4.29;80.51;100650.91;51265;1282;1015663;-62
2022/10/21 00:04:38;;;;;;;35.40;12.60;;;;;;;4.26;80.51;100644.83;51275;1306;1019739;-62
2022/10/21 00:07:10;;;;;;;35.30;13.00;;;;;;;4.25;80.55;100642.40;51151;1306;1016285;-63
2022/10/21 00:09:41;;;;;;;33.90;13.70;;;;;;;4.23;80.59;100633.89;51263;1285;1016400;-63
2022/10/21 00:12:13;;;;;;;35.30;13.90;;;;;;;4.23;80.72;100628.77;51219;1283;1019973;-62
2022/10/21 00:14:45;;;;;;;32.20;12.50;;;;;;;4.22;80.74;100636.36;51251;1306;1016504;-62
2022/10/21 00:17:16;;;;;;;29.60;13.50;;;;;;;4.21;80.78;100629.14;51127;1285;1019130;-63
2022/10/21 00:19:49;;;;;;;31.00;12.30;;;;;;;4.19;80.98;100630.35;51135;1281;1016053;-62
2022/10/21 00:22:20;;;;;;;31.90;13.70;;;;;;;4.17;80.92;100633.64;51224;1283;1016361;-62
2022/10/21 00:24:52;;;;;;;32.00;12.40;;;;;;;4.18;80.98;100633.25;51172;1283;1020350;-62
2022/10/21 00:27:23;;;;;;;29.80;13.20;;;;;;;4.16;81.03;100634.12;51251;1296;1016419;-62
2022/10/21 00:29:55;;;;;;;36.20;13.70;;;;;;;4.13;81.03;100634.74;51241;1306;1015882;-63
2022/10/21 00:32:27;;;;;;;36.40;13.70;;;;;;;4.11;80.99;100632.17;51153;1284;1016137;-63
2022/10/21 00:34:58;;;;;;;34.40;12.80;;;;;;;4.07;81.01;100626.50;51140;1306;1018719;-63
2022/10/21 00:37:32;;;;;;;32.40;13.00;;;;;;;4.02;81.06;100623.83;51197;1306;1016371;-63
2022/10/21 00:40:04;;;;;;;33.20;13.80;;;;;;;3.97;81.01;100623.38;51273;1306;1015700;-63
2022/10/21 00:42:41;;;;;;;32.30;13.60;;;;;;;3.93;81.06;100622.66;51180;1306;1016508;-62
2022/10/21 00:45:24;;;;;;;35.00;14.60;;;;;;;3.88;81.01;100620.73;51241;1283;1016912;-63
2022/10/21 00:48:00;;;;;;;37.30;14.80;;;;;;;3.86;81.12;100614.69;51245;1306;1016400;-62
2022/10/21 00:50:36;;;;;;;32.50;12.50;;;;;;;3.85;81.37;100608.14;51278;1306;1016079;-63
2022/10/21 00:53:11;;;;;;;35.30;14.40;;;;;;;3.85;81.46;100600.80;51237;1285;1018381;-62
2022/10/21 00:55:47;;;;;;;34.50;14.10;;;;;;;3.86;81.71;100590.77;51228;1306;1016368;-62
2022/10/21 00:58:23;;;;;;;33.00;14.00;;;;;;;3.85;81.80;100587.30;51168;1306;1016220;-63
2022/10/21 01:00:57;;;;;;;32.60;13.10;;;;;;;3.86;81.90;100585.02;51282;1281;1018060;-63
2022/10/21 01:03:31;;;;;;;35.40;14.20;;;;;;;3.87;81.99;100584.69;51141;1306;1015972;-62
2022/10/21 01:06:06;;;;;;;35.20;13.50;;;;;;;3.87;82.13;100586.41;51274;1286;1015906;-63
2022/10/21 01:08:39;;;;;;;30.20;12.50;;;;;;;3.87;82.28;100583.26;51179;1306;1016243;-63
2022/10/21 01:11:15;;;;;;;34.00;13.90;;;;;;;3.88;82.39;100578.19;51148;1306;1015974;-62
2022/10/21 01:14:00;;;;;;;33.30;14.00;;;;;;;3.90;82.47;100577.52;51215;1306;1016806;-63
2022/10/21 01:16:41;;;;;;;38.50;14.60;;;;;;;3.91;82.59;100569.29;51252;1309;1016431;-62
2022/10/21 01:19:33;;;;;;;35.30;13.50;;;;;;;3.94;82.71;100563.77;51111;1298;1016065;-62
2022/10/21 01:22:18;;;;;;;39.20;13.80;;;;;;;3.96;82.84;100558.75;51135;1306;1016450;-63
2022/10/21 01:25:10;;;;;;;30.80;13.40;;;;;;;3.97;82.98;100568.38;51184;1306;1016130;-63
2022/10/21 01:27:52;;;;;;;32.60;13.60;;;;;;;4.00;82.99;100569.98;51190;1284;1016144;-63
2022/10/21 01:30:51;;;;;;;35.20;13.90;;;;;;;4.02;83.11;100562.13;51218;1306;1015785;-62
2022/10/21 01:33:33;;;;;;;34.70;14.10;;;;;;;4.05;83.30;100554.23;50974;1312;1016438;-62
2022/10/21 01:36:22;;;;;;;36.80;17.00;;;;;;;4.07;83.40;100532.25;50957;1312;1015743;-62
2022/10/21 01:39:03;;;;;;;34.80;15.40;;;;;;;4.11;83.73;100520.14;51038;1312;1019561;-63
2022/10/21 01:41:42;;;;;;;37.60;16.30;;;;;;;4.15;83.83;100523.33;51001;1293;1016420;-63
2022/10/21 01:44:21;;;;;;;39.20;16.40;;;;;;;4.18;84.01;100529.86;51104;1312;1015837;-62
2022/10/21 01:46:59;;;;;;;43.10;17.70;;;;;;;4.18;84.36;100540.67;51056;1298;1016892;-62
2022/10/21 01:49:35;;;;;;;37.40;16.40;;;;;;;4.19;84.38;100541.70;50995;1291;1015837;-63
2022/10/21 01:52:07;;;;;;;30.90;14.50;;;;;;;4.22;84.52;100544.56;51043;1291;1015865;-63
2022/10/21 01:54:42;;;;;;;36.70;16.10;;;;;;;4.24;84.48;100543.02;51097;1291;1015956;-62
2022/10/21 01:57:18;;;;;;;35.30;15.10;;;;;;;4.28;84.57;100535.27;50994;1312;1016518;-62
2022/10/21 01:59:51;;;;;;;37.80;14.90;;;;;;;4.32;84.64;100529.86;50964;1312;1016083;-64
2022/10/21 02:02:26;;;;;;;36.00;13.40;;;;;;;4.36;84.91;100523.63;50993;1312;1016196;-63
2022/10/21 02:05:03;;;;;;;32.10;14.20;;;;;;;4.39;84.90;100531.29;50946;1312;1016275;-63
2022/10/21 02:07:35;;;;;;;32.80;14.30;;;;;;;4.42;84.98;100534.00;51005;1290;1016201;-63
2022/10/21 02:10:08;;;;;;;34.00;15.00;;;;;;;4.44;84.85;100526.52;51121;1291;1020032;-63
2022/10/21 02:12:46;;;;;;;35.50;13.90;;;;;;;4.47;84.90;100533.08;51227;1306;1016448;-63
2022/10/21 02:15:19;;;;;;;37.20;15.40;;;;;;;4.47;85.08;100538.37;51173;1306;1016331;-63
2022/10/21 02:17:55;;;;;;;37.20;15.30;;;;;;;4.50;85.11;100543.84;51219;1306;1015580;-63
2022/10/21 02:20:30;;;;;;;35.80;14.30;;;;;;;4.51;85.20;100547.91;51136;1285;1016048;-63
2022/10/21 02:23:02;;;;;;;32.40;14.10;;;;;;;4.52;85.16;100543.71;51248;1285;1016194;-63
2022/10/21 02:25:40;;;;;;;31.10;14.60;;;;;;;4.53;85.34;100538.16;51166;1290;1016642;-63
2022/10/21 02:28:13;;;;;;;33.90;14.60;;;;;;;4.55;85.32;100540.64;51192;1306;1016320;-63
2022/10/21 02:30:55;;;;;;;39.50;17.10;;;;;;;4.55;85.39;100544.58;51144;1301;1016754;-63
2022/10/21 02:33:33;;;;;;;35.90;14.10;;;;;;;4.58;85.35;100537.88;51206;1292;1016001;-63
2022/10/21 02:36:13;;;;;;;36.60;14.90;;;;;;;4.61;85.32;100529.11;51154;1307;1015672;-62
2022/10/21 02:38:48;;;;;;;36.10;15.20;;;;;;;4.63;85.40;100524.71;51145;1306;1016519;-62
2022/10/21 02:41:25;;;;;;;35.60;14.10;;;;;;;4.64;85.45;100528.17;51167;1306;1016345;-62
2022/10/21 02:43:59;;;;;;;31.80;14.20;;;;;;;4.64;85.52;100525.86;51200;1298;1016176;-62
2022/10/21 02:46:37;;;;;;;34.50;13.20;;;;;;;4.65;85.56;100526.25;51091;1283;1016072;-62
2022/10/21 02:49:10;;;;;;;35.50;13.80;;;;;;;4.66;85.63;100519.27;51135;1307;1016229;-63
2022/10/21 02:51:42;;;;;;;31.90;13.40;;;;;;;4.69;85.75;100528.53;51236;1281;1016462;-62
2022/10/21 02:54:14;;;;;;;34.00;13.60;;;;;;;4.66;85.77;100526.61;51419;1285;1016236;-63
2022/10/21 02:56:46;;;;;;;31.50;15.00;;;;;;;4.66;85.86;100521.81;51207;1312;1016790;-63
2022/10/21 02:59:17;;;;;;;26.40;12.20;;;;;;;4.68;85.97;100525.06;51138;1280;1015682;-63
2022/10/21 03:01:48;;;;;;;29.40;12.50;;;;;;;4.70;85.84;100520.42;51184;1292;1016479;-63
2022/10/21 03:04:20;;;;;;;33.20;13.30;;;;;;;4.73;85.88;100514.44;51288;1307;1018207;-63
2022/10/21 03:06:52;;;;;;;35.80;13.80;;;;;;;4.76;85.97;100515.79;51198;1306;1016040;-62
2022/10/21 03:09:24;;;;;;;33.30;13.80;;;;;;;4.78;85.89;100519.61;51197;1286;1015741;-62
2022/10/21 03:11:55;;;;;;;29.50;12.20;;;;;;;4.80;85.94;100515.05;51233;1306;1015916;-62
2022/10/21 03:14:27;;;;;;;31.30;13.80;;;;;;;4.84;85.94;100505.86;51218;1312;1016500;-62
2022/10/21 03:16:58;;;;;;;32.40;14.90;;;;;;;4.84;85.92;100500.86;51289;1285;1016080;-62
2022/10/21 03:19:31;;;;;;;32.70;14.20;;;;;;;4.85;85.99;100503.61;51143;1285;1015480;-62
2022/10/21 03:22:02;;;;;;;32.20;14.10;;;;;;;4.86;86.05;100500.59;51245;1306;1016499;-63
2022/10/21 03:24:34;;;;;;;32.40;14.50;;;;;;;4.87;86.20;100494.73;51172;1291;1016367;-63
2022/10/21 03:27:06;;;;;;;29.30;13.60;;;;;;;4.88;86.09;100485.28;51168;1307;1016515;-63
2022/10/21 03:29:37;;;;;;;31.90;13.70;;;;;;;4.89;86.22;100480.05;51197;1306;1016961;-63
2022/10/21 03:32:09;;;;;;;29.50;14.10;;;;;;;4.90;86.28;100477.73;51292;1281;1015990;-63
2022/10/21 03:34:41;;;;;;;29.10;11.50;;;;;;;4.92;86.41;100472.23;51204;1312;1015854;-63
2022/10/21 03:37:12;;;;;;;30.00;12.90;;;;;;;4.92;86.49;100471.03;51167;1301;1016393;-63
2022/10/21 03:39:44;;;;;;;32.00;13.50;;;;;;;4.92;86.47;100469.31;51160;1284;1016157;-63
2022/10/21 03:42:16;;;;;;;32.30;12.90;;;;;;;4.92;86.54;100466.91;51199;1280;1016136;-63
2022/10/21 03:44:48;;;;;;;35.00;14.60;;;;;;;4.93;86.61;100462.79;51229;1306;1016520;-63
2022/10/21 03:47:20;;;;;;;31.90;13.00;;;;;;;4.94;86.83;100459.20;51223;1286;1016625;-63
2022/10/21 03:49:52;;;;;;;31.00;13.50;;;;;;;4.96;86.96;100454.41;51244;1310;1016099;-62
2022/10/21 03:52:23;;;;;;;32.70;13.10;;;;;;;4.96;87.05;100458.28;51253;1306;1016625;-63
2022/10/21 03:54:55;;;;;;;30.80;12.40;;;;;;;4.98;87.04;100459.59;51177;1291;1016284;-62
2022/10/21 03:57:26;;;;;;;27.60;11.70;;;;;;;5.01;87.16;100453.66;51199;1306;1016196;-62
2022/10/21 03:59:58;;;;;;;30.90;12.80;;;;;;;5.03;87.20;100451.15;51208;1288;1016361;-62
2022/10/21 04:02:29;;;;;;;30.30;12.00;;;;;;;5.05;87.31;100442.79;51496;1284;1016044;-63
2022/10/21 04:05:01;;;;;;;28.00;10.40;;;;;;;5.08;87.43;100450.46;51109;1307;1019156;-63
2022/10/21 04:07:33;;;;;;;23.30;10.60;;;;;;;5.11;87.36;100451.17;51386;1284;1015768;-63
2022/10/21 04:10:05;;;;;;;28.80;10.00;;;;;;;5.14;87.29;100446.41;51207;1307;1015939;-63
2022/10/21 04:12:37;;;;;;;26.40;9.60;;;;;;;5.18;87.51;100449.64;51269;1306;1016721;-63
2022/10/21 04:15:12;;;;;;;26.30;11.00;;;;;;;5.21;87.52;100445.36;51245;1306;1019479;-63
2022/10/21 04:17:47;;;;;;;24.10;10.00;;;;;;;5.24;87.50;100437.91;51296;1306;1016147;-63
2022/10/21 04:20:19;;;;;;;27.60;10.40;;;;;;;5.26;87.40;100437.06;51255;1312;1015618;-63
2022/10/21 04:22:51;;;;;;;28.20;10.50;;;;;;;5.29;87.39;100428.21;51264;1312;1016576;-62
2022/10/21 04:25:23;;;;;;;26.80;11.10;;;;;;;5.32;87.52;100429.39;51197;1307;1015628;-62
2022/10/21 04:27:55;;;;;;;22.60;9.70;;;;;;;5.35;87.58;100427.56;51211;1305;1020574;-62
2022/10/21 04:30:27;;;;;;;26.40;10.10;;;;;;;5.38;87.53;100427.55;51268;1288;1016052;-62
2022/10/21 04:32:58;;;;;;;23.40;8.70;;;;;;;5.40;87.57;100429.05;51262;1281;1015911;-62
2022/10/21 04:35:30;;;;;;;26.40;10.60;;;;;;;5.43;87.44;100427.92;51253;1290;1016882;-63
2022/10/21 04:38:02;;;;;;;21.80;9.00;;;;;;;5.47;87.44;100425.46;51348;1285;1016478;-63
2022/10/21 04:40:34;;;;;;;23.70;9.40;;;;;;;5.50;87.51;100417.63;51307;1288;1017600;-62
2022/10/21 04:43:05;;;;;;;27.90;9.60;;;;;;;5.52;87.67;100408.54;51204;1306;1016537;-62
2022/10/21 04:45:40;;;;;;;21.60;9.00;;;;;;;5.55;87.69;100406.00;51226;1288;1020179;-62
2022/10/21 04:48:12;;;;;;;24.40;9.00;;;;;;;5.57;87.71;100396.76;51526;1292;1016228;-63
2022/10/21 04:50:43;;;;;;;25.50;9.20;;;;;;;5.61;87.80;100397.75;51185;1281;1015770;-62
2022/10/21 04:53:15;;;;;;;25.40;8.30;;;;;;;5.65;88.01;100393.27;51254;1306;1016131;-61
2022/10/21 04:55:50;;;;;;;23.70;8.70;;;;;;;5.68;87.79;100388.98;51181;1298;1015932;-62
2022/10/21 04:58:22;;;;;;;21.80;8.30;;;;;;;5.72;87.93;100381.74;51164;1285;1017774;-63
2022/10/21 05:00:54;;;;;;;23.00;8.80;;;;;;;5.76;87.85;100379.15;51270;1288;1015858;-62
2022/10/21 05:03:26;;;;;;;20.90;7.90;;;;;;;5.80;87.79;100374.37;51330;1280;1016928;-62
2022/10/21 05:05:57;;;;;;;24.00;8.60;;;;;;;5.83;87.74;100371.83;51273;1310;1017418;-61
2022/10/21 05:08:29;;;;;;;21.00;8.80;;;;;;;5.87;87.73;100362.80;51261;1297;1016310;-62
2022/10/21 05:11:01;;;;;;;22.90;8.70;;;;;;;5.89;87.91;100358.77;51132;1285;1017048;-62
2022/10/21 05:13:33;;;;;;;25.10;9.20;;;;;;;5.91;87.80;100356.97;51127;1312;1015469;-62
2022/10/21 05:16:06;;;;;;;23.80;7.90;;;;;;;5.93;87.73;100352.31;51162;1283;1016420;-62
2022/10/21 05:18:38;;;;;;;18.30;7.40;;;;;;;5.95;87.88;100348.20;51196;1286;1015805;-62
2022/10/21 05:21:10;;;;;;;19.40;6.60;;;;;;;5.99;87.99;100341.17;51171;1283;1015707;-62
2022/10/21 05:23:42;;;;;;;21.00;6.90;;;;;;;6.02;88.10;100342.84;51311;1285;1016760;-62
2022/10/21 05:26:13;;;;;;;21.90;7.20;;;;;;;6.04;87.97;100339.74;51159;1298;1016522;-63
2022/10/21 05:28:47;;;;;;;21.10;6.60;;;;;;;6.06;87.97;100330.87;51205;1288;1016863;-63
2022/10/21 05:31:18;;;;;;;21.60;8.40;;;;;;;6.09;88.06;100334.83;51240;1312;1016393;-63
2022/10/21 05:33:50;;;;;;;21.90;6.90;;;;;;;6.12;88.04;100326.56;51345;1281;1016494;-63
2022/10/21 05:36:21;;;;;;;22.80;8.50;;;;;;;6.14;88.10;100321.11;51185;1291;1016382;-63
2022/10/21 05:38:54;;;;;;;18.50;6.90;;;;;;;6.17;88.25;100320.23;51194;1310;1016679;-63
2022/10/21 05:41:26;;;;;;;18.00;7.00;;;;;;;6.20;88.26;100319.41;51183;1312;1016563;-63
2022/10/21 05:43:57;;;;;;;23.90;7.60;;;;;;;6.23;88.28;100310.60;51228;1311;1016454;-62
2022/10/21 05:46:28;;;;;;;19.10;7.20;;;;;;;6.26;88.31;100308.84;51162;1298;1016600;-63
2022/10/21 05:49:00;;;;;;;20.40;7.20;;;;;;;6.28;88.26;100306.15;51116;1312;1016855;-62
2022/10/21 05:51:31;;;;;;;20.80;7.60;;;;;;;6.31;88.34;100302.01;51239;1312;1017325;-63
2022/10/21 05:54:04;;;;;;;24.30;7.60;;;;;;;6.33;88.26;100302.33;51232;1312;1015403;-62
2022/10/21 05:56:36;;;;;;;18.70;6.80;;;;;;;6.36;88.36;100299.78;51209;1310;1016747;-63
2022/10/21 05:59:08;;;;;;;20.00;7.20;;;;;;;6.38;88.29;100299.31;51254;1280;1016543;-63
2022/10/21 06:01:40;;;;;;;23.50;7.20;;;;;;;6.41;88.22;100298.07;51218;1283;1018282;-63
2022/10/21 06:04:12;;;;;;;18.20;5.70;;;;;;;6.44;88.32;100290.54;51115;1283;1015815;-63
2022/10/21 06:06:44;;;;;;;17.70;6.70;;;;;;;6.46;88.21;100290.22;51381;1276;1016596;-63
2022/10/21 06:09:16;;;;;;;18.20;7.20;;;;;;;6.49;88.34;100287.27;51245;1285;1016127;-63
2022/10/21 06:11:48;;;;;;;20.70;7.10;;;;;;;6.52;88.23;100288.89;51292;1312;1016257;-63
2022/10/21 06:14:22;;;;;;;19.10;6.40;;;;;;;6.55;88.23;100285.45;51302;1283;1016933;-63
2022/10/21 06:16:54;;;;;;;22.70;7.50;;;;;;;6.59;88.36;100280.09;51219;1310;1015890;-63
2022/10/21 06:19:25;;;;;;;17.90;5.90;;;;;;;6.63;88.48;100285.60;51231;1298;1016375;-63
2022/10/21 06:21:57;;;;;;;18.40;5.70;;;;;;;6.66;88.38;100295.72;51176;1284;1016518;-62
2022/10/21 06:24:29;;;;;;;18.00;6.00;;;;;;;6.69;88.39;100295.10;51255;1286;1016387;-62
2022/10/21 06:27:01;;;;;;;17.10;5.90;;;;;;;6.74;88.45;100296.05;51204;1306;1016135;-62
2022/10/21 06:29:32;;;;;;;17.40;5.70;;;;;;;6.77;88.36;100296.34;51466;1312;1015974;-63
2022/10/21 06:32:04;;;;;;;16.50;5.60;;;;;;;6.80;88.31;100295.27;51216;1309;1016805;-63
2022/10/21 06:34:36;;;;;;;17.70;6.30;;;;;;;6.84;88.34;100285.46;51166;1290;1015324;-63
2022/10/21 06:37:07;;;;;;;20.20;7.40;;;;;;;6.88;88.33;100279.27;51272;1308;1015996;-63
2022/10/21 06:39:39;;;;;;;19.60;6.30;;;;;;;6.92;88.39;100282.35;51212;1281;1015764;-63
2022/10/21 06:42:11;;;;;;;18.30;5.90;;;;;;;6.96;88.36;100278.74;51303;1288;1016525;-63
2022/10/21 06:44:42;;;;;;;15.30;5.70;;;;;;;7.00;88.30;100278.27;51256;1312;1016721;-63
2022/10/21 06:47:14;;;;;;;19.00;6.40;;;;;;;7.04;88.11;100275.18;51220;1280;1015810;-63
2022/10/21 06:49:45;;;;;;;20.70;6.90;;;;;;;7.08;88.35;100273.65;51232;1306;1016452;-63
2022/10/21 06:52:17;;;;;;;20.70;7.20;;;;;;;7.13;88.36;100271.87;51238;1284;1015412;-63
2022/10/21 06:54:49;;;;;;;17.60;6.30;;;;;;;7.18;88.35;100277.41;51214;1285;1016801;-63
2022/10/21 06:57:20;;;;;;;18.70;5.50;;;;;;;7.23;88.16;100281.43;51160;1292;1016026;-63
2022/10/21 06:59:52;;;;;;;17.30;6.80;;;;;;;7.28;88.10;100270.59;51246;1310;1015789;-62
2022/10/21 07:02:24;;;;;;;18.00;6.40;;;;;;;7.33;88.21;100268.48;51231;1283;1017162;-63
2022/10/21 07:04:56;;;;;;;17.60;5.70;;;;;;;7.39;88.31;100269.56;51309;1284;1016269;-63
2022/10/21 07:07:28;;;;;;;20.60;5.60;;;;;;;7.44;88.28;100263.31;51470;1290;1019557;-63
2022/10/21 07:10:00;;;;;;;19.10;6.50;;;;;;;7.49;88.29;100254.54;51259;1281;1015670;-63
2022/10/21 07:12:32;;;;;;;18.00;6.80;;;;;;;7.55;88.23;100251.29;51272;1293;1018701;-63
2022/10/21 07:15:04;;;;;;;15.40;5.90;;;;;;;7.61;88.12;100247.39;51256;1306;1018382;-63
2022/10/21 07:17:36;;;;;;;18.50;6.10;;;;;;;7.67;88.16;100253.26;51320;1307;1015956;-63
2022/10/21 07:20:09;;;;;;;16.80;5.70;;;;;;;7.73;87.90;100241.58;51361;1274;1015940;-63
2022/10/21 07:22:40;;;;;;;20.10;5.60;;;;;;;7.79;88.05;100226.80;51176;1306;1016469;-63
2022/10/21 07:25:12;;;;;;;14.00;4.90;;;;;;;7.85;88.00;100221.68;51253;1281;1016930;-63
2022/10/21 07:27:44;;;;;;;20.20;6.50;;;;;;;7.93;88.02;100228.04;51209;1284;1016002;-63
2022/10/21 07:30:15;;;;;;;15.00;5.30;;;;;;;8.00;87.94;100231.44;51186;1307;1016131;-64
2022/10/21 07:32:47;;;;;;;13.00;4.20;;;;;;;8.09;87.83;100228.60;51203;1307;1015769;-64
2022/10/21 07:35:19;;;;;;;16.10;5.50;;;;;;;8.17;87.65;100227.41;51212;1283;1019007;-63
2022/10/21 07:37:51;;;;;;;13.00;4.00;;;;;;;8.25;87.75;100226.84;51197;1307;1016463;-63
2022/10/21 07:40:22;;;;;;;15.50;4.50;;;;;;;8.32;87.57;100228.43;51226;1306;1016327;-63
2022/10/21 07:42:54;;;;;;;13.40;4.50;;;;;;;8.40;87.58;100238.41;51190;1306;1015690;-63
2022/10/21 07:45:25;;;;;;;16.90;4.90;;;;;;;8.48;87.50;100249.50;51184;1306;1015736;-62
2022/10/21 07:47:57;;;;;;;19.10;4.80;;;;;;;8.57;87.58;100250.23;51311;1283;1015711;-63
2022/10/21 07:50:28;;;;;;;14.40;3.80;;;;;;;8.64;87.28;100242.04;51268;1282;1016036;-63
2022/10/21 07:53:01;;;;;;;12.80;3.80;;;;;;;8.70;86.98;100228.80;51175;1285;1015746;-63
2022/10/21 07:55:32;;;;;;;12.90;4.30;;;;;;;8.76;86.82;100228.05;51165;1285;1016413;-63
2022/10/21 07:58:04;;;;;;;14.90;3.40;;;;;;;8.83;86.96;100231.86;51323;1291;1016705;-63
2022/10/21 08:00:36;;;;;;;10.30;3.20;;;;;;;8.91;87.03;100241.02;51181;1284;1016508;-63
2022/10/21 08:03:09;;;;;;;10.80;3.80;;;;;;;8.99;86.63;100252.75;51232;1307;1016563;-63
2022/10/21 08:05:42;;;;;;;22.20;7.50;;;;;;;9.06;86.56;100243.77;51253;1307;1015908;-63
2022/10/21 08:08:14;;;;;;;21.80;7.90;;;;;;;9.13;86.44;100238.02;51336;1296;1016621;-64
2022/10/21 08:10:46;;;;;;;21.00;9.50;;;;;;;9.20;86.36;100239.37;51221;1307;1016474;-63
2022/10/21 08:13:18;;;;;;;17.30;6.80;;;;;;;9.27;86.40;100233.00;51121;1284;1018410;-63
2022/10/21 08:15:51;;;;;;;20.90;7.40;;;;;;;9.34;86.12;100217.36;51162;1282;1016345;-63
2022/10/21 08:18:24;;;;;;;19.50;7.40;;;;;;;9.42;86.17;100206.55;51202;1312;1019860;-64
2022/10/21 08:20:56;;;;;;;25.90;11.10;;;;;;;9.51;86.18;100210.71;51237;1281;1016065;-64
2022/10/21 08:23:28;;;;;;;21.00;9.10;;;;;;;9.58;85.95;100219.05;51352;1309;1016314;-63
2022/10/21 08:26:00;;;;;;;22.50;10.00;;;;;;;9.65;85.58;100229.49;51155;1285;1016633;-63
2022/10/21 08:28:32;;;;;;;26.00;10.80;;;;;;;9.73;85.41;100235.80;51185;1306;1016002;-64
2022/10/21 08:31:09;;;;;;;18.90;6.70;;;;;;;9.80;85.45;100233.56;51182;1284;1016159;-64
2022/10/21 08:33:41;;;;;;;23.50;11.10;;;;;;;9.87;85.30;100229.70;51170;1285;1016420;-64
2022/10/21 08:36:15;;;;;;;17.40;6.50;;;;;;;9.93;85.18;100219.50;51240;1284;1016224;-64
2022/10/21 08:38:47;;;;;;;14.50;4.10;;;;;;;9.99;85.19;100219.04;51270;1306;1016100;-64
2022/10/21 08:41:41;;;;;;;11.80;4.00;;;;;;;10.03;84.41;100217.67;51173;1298;1016347;-64
2022/10/21 08:44:24;;;;;;;26.60;11.80;;;;;;;10.05;84.13;100222.09;51211;1306;1015705;-64
2022/10/21 08:47:05;;;;;;;13.50;5.50;;;;;;;10.08;84.40;100227.98;51163;1285;1016964;-64
2022/10/21 08:49:49;;;;;;;11.60;4.50;;;;;;;10.12;84.30;100235.14;51208;1306;1022509;-65
2022/10/21 08:52:26;;;;;;;18.40;4.40;;;;;;;10.16;84.26;100225.02;51172;1283;1016487;-64
2022/10/21 08:55:00;;;;;;;11.40;3.00;;;;;;;10.19;84.42;100211.69;51234;1306;1016751;-64
2022/10/21 08:57:35;;;;;;;14.30;3.10;;;;;;;10.23;84.23;100211.88;51229;1306;1016186;-64
2022/10/21 09:00:16;;;;;;;19.20;5.70;;;;;;;10.27;83.98;100212.31;51180;1283;1016253;-64
2022/10/21 09:03:20;;;;;;;23.80;7.20;;;;;;;10.32;83.91;100202.16;51166;1292;1016278;-64
2022/10/21 09:06:17;;;;;;;22.30;9.70;;;;;;;10.38;84.14;100201.48;50980;1312;1016416;-64
2022/10/21 09:08:59;;;;;;;26.70;11.60;;;;;;;10.44;83.90;100194.39;51007;1297;1016007;-64
2022/10/21 09:11:43;;;;;;;26.10;9.00;;;;;;;10.50;83.68;100193.27;51252;1312;1016281;-64
2022/10/21 09:14:42;;;;;;;22.30;9.40;;;;;;;10.55;83.68;100193.17;51124;1298;1016429;-64
2022/10/21 09:17:27;;;;;;;15.90;6.50;;;;;;;10.62;83.71;100190.69;51066;1312;1016319;-64
2022/10/21 09:20:03;;;;;;;17.80;6.50;;;;;;;10.69;83.56;100192.84;50988;1312;1015855;-64
2022/10/21 09:22:49;;;;;;;18.20;6.80;;;;;;;10.76;83.51;100193.65;51116;1291;1016601;-64
2022/10/21 09:25:26;;;;;;;14.60;4.90;;;;;;;10.86;83.64;100191.83;50926;1312;1016382;-64
2022/10/21 09:27:59;;;;;;;13.70;3.30;;;;;;;10.97;83.35;100182.91;50972;1297;1016436;-64
2022/10/21 09:30:30;;;;;;;10.20;3.50;;;;;;;11.04;83.07;100169.17;51117;1291;1017568;-65
2022/10/21 09:33:02;;;;;;;12.00;3.40;;;;;;;11.12;82.85;100168.18;51056;1280;1016119;-66
2022/10/21 09:35:39;;;;;;;9.90;2.70;;;;;;;11.20;82.63;100168.20;51026;1290;1017742;-65
2022/10/21 09:38:19;;;;;;;12.30;3.20;;;;;;;11.29;82.69;100165.64;51120;1286;1017652;-65
2022/10/21 09:40:58;;;;;;;16.40;3.80;;;;;;;11.37;82.90;100159.30;51057;1296;1018253;-64
2022/10/21 09:43:31;;;;;;;10.70;3.10;;;;;;;11.47;83.06;100149.08;51272;1306;1017137;-65
2022/10/21 09:46:03;;;;;;;9.90;3.10;;;;;;;11.58;82.79;100138.25;51279;1306;1016266;-65
2022/10/21 09:48:42;;;;;;;14.90;3.10;;;;;;;11.72;82.40;100132.30;51289;1306;1016432;-64
2022/10/21 09:51:18;;;;;;;12.00;3.70;;;;;;;11.88;82.25;100128.94;51196;1291;1015816;-63
2022/10/21 09:53:52;;;;;;;12.00;3.10;;;;;;;12.00;81.93;100125.88;51246;1285;1016290;-64
2022/10/21 09:56:26;;;;;;;9.40;3.00;;;;;;;12.12;81.86;100133.64;51226;1306;1015903;-65
2022/10/21 09:59:08;;;;;;;12.20;2.70;;;;;;;12.29;81.08;100130.55;51280;1283;1016330;-64
2022/10/21 10:01:41;;;;;;;9.50;2.60;;;;;;;12.46;79.99;100128.80;51246;1307;1015557;-65
2022/10/21 10:04:21;;;;;;;9.70;2.10;;;;;;;12.59;79.85;100119.70;51275;1292;1016583;-65
2022/10/21 10:06:52;;;;;;;13.00;2.10;;;;;;;12.69;79.24;100128.15;51418;1283;1015588;-65
2022/10/21 10:09:29;;;;;;;12.30;2.10;;;;;;;12.81;78.99;100126.01;51250;1298;1018871;-65
2022/10/21 10:12:04;;;;;;;8.00;1.90;;;;;;;12.93;78.50;100116.02;51226;1306;1016445;-65
2022/10/21 10:14:38;;;;;;;11.20;1.90;;;;;;;13.07;78.16;100120.47;51250;1282;1017050;-65
2022/10/21 10:17:28;;;;;;;6.90;1.50;;;;;;;13.17;77.64;100123.94;51220;1284;1016433;-65
2022/10/21 10:20:15;;;;;;;6.30;1.50;;;;;;;13.28;76.92;100112.30;51220;1306;1016237;-65
2022/10/21 10:23:07;;;;;;;7.50;1.70;;;;;;;13.41;76.50;100103.80;51230;1285;1016183;-65
2022/10/21 10:25:40;;;;;;;8.90;2.00;;;;;;;13.55;75.98;100091.38;51232;1285;1016372;-65
2022/10/21 10:28:24;;;;;;;9.10;1.80;;;;;;;13.66;75.06;100091.33;51242;1283;1016298;-65
2022/10/21 10:30:58;;;;;;;8.50;2.30;;;;;;;13.74;75.15;100091.92;51377;1304;1016368;-66
2022/10/21 10:33:32;;;;;;;6.90;1.70;;;;;;;13.79;73.80;100085.46;51219;1306;1016580;-65
2022/10/21 10:36:06;;;;;;;9.00;1.90;;;;;;;13.86;73.02;100089.98;51312;1306;1015816;-66
2022/10/21 10:38:41;;;;;;;8.60;2.00;;;;;;;13.91;73.41;100098.20;51217;1307;1019635;-66
2022/10/21 10:41:15;;;;;;;8.70;2.00;;;;;;;13.95;73.08;100087.30;51262;1298;1015946;-65
2022/10/21 10:43:51;;;;;;;10.00;2.10;;;;;;;14.00;73.14;100083.04;51276;1306;1015754;-66
2022/10/21 10:46:28;;;;;;;6.30;1.80;;;;;;;14.04;72.44;100070.78;51157;1284;1018957;-66
2022/10/21 10:49:05;;;;;;;10.20;1.80;;;;;;;14.09;71.98;100071.20;51225;1283;1016154;-66
2022/10/21 10:51:39;;;;;;;5.30;1.30;;;;;;;14.17;71.74;100077.48;51241;1284;1017839;-66
2022/10/21 10:54:23;;;;;;;8.20;1.90;;;;;;;14.21;71.05;100080.92;51196;1275;1016256;-66
2022/10/21 10:56:57;;;;;;;5.50;1.50;;;;;;;14.23;71.34;100083.59;51271;1306;1018982;-66
2022/10/21 10:59:35;;;;;;;8.00;1.60;;;;;;;14.23;70.54;100085.08;51389;1306;1016608;-66
2022/10/21 11:02:31;;;;;;;9.60;1.90;;;;;;;14.24;70.87;100083.59;51212;1282;1016101;-66
2022/10/21 11:05:18;;;;;;;8.60;2.10;;;;;;;14.24;70.77;100070.47;51285;1285;1015922;-66
2022/10/21 11:07:53;;;;;;;10.00;2.30;;;;;;;14.26;70.29;100061.07;51370;1284;1016429;-67
2022/10/21 11:10:37;;;;;;;8.70;2.10;;;;;;;14.28;69.92;100054.09;51259;1284;1015827;-67
2022/10/21 11:13:14;;;;;;;8.00;1.90;;;;;;;14.29;69.30;100047.98;51165;1278;1016446;-66
2022/10/21 11:16:10;;;;;;;8.70;1.70;;;;;;;14.29;69.37;100053.55;51239;1283;1016038;-67
2022/10/21 11:18:48;;;;;;;8.60;1.70;;;;;;;14.28;69.42;100056.15;51114;1285;1294723;-67
2022/10/21 11:21:35;;;;;;;13.90;2.60;;;;;;;14.30;69.52;100057.23;51374;1290;1016046;-67
2022/10/21 11:24:28;;;;;;;7.50;1.70;;;;;;;14.30;69.12;100053.76;51194;1306;1016339;-67
2022/10/21 11:27:04;;;;;;;9.50;2.00;;;;;;;14.28;68.82;100043.73;51351;1282;1016506;-67
2022/10/21 11:29:47;;;;;;;6.20;1.70;;;;;;;14.26;68.35;100036.98;51384;1290;1016260;-67
2022/10/21 11:32:28;;;;;;;11.20;1.90;;;;;;;14.23;68.27;100035.55;51196;1277;1016188;-68
2022/10/21 11:35:16;;;;;;;7.50;1.90;;;;;;;14.22;68.46;100036.16;51407;1283;1016033;-67
2022/10/21 11:38:04;;;;;;;8.90;1.90;;;;;;;14.23;68.33;100041.06;51206;1306;1015991;-67
2022/10/21 11:40:41;;;;;;;7.00;1.70;;;;;;;14.24;68.17;100043.47;51152;1290;1018312;-68